sensor_id;sensor_type;location;lat;lon;timestamp;P1;durP1;ratioP1;P2;durP2;ratioP2
17604;SDS011;8921;50.964;6.800;2023-06-26T00:00:45;8.63;;;6.43;;
17604;SDS011;8921;50.964;6.800;2023-06-26T00:03:14;13.87;;;7.27;;
17604;SDS011;8921;50.964;6.800;2023-06-26T00:05:42;11.67;;;6.83;;
17604;SDS011;8921;50.964;6.800;2023-06-26T00:08:10;11.10;;;7.50;;
17604;SDS011;8921;50.964;6.800;2023-06-26T00:10:38;9.50;;;6.70;;
17604;SDS011;8921;50.964;6.800;2023-06-26T00:13:07;11.17;;;8.23;;
17604;SDS011;8921;50.964;6.800;2023-06-26T00:15:35;9.93;;;7.40;;
17604;SDS011;8921;50.964;6.800;2023-06-26T00:18:03;16.23;;;8.03;;
17604;SDS011;8921;50.964;6.800;2023-06-26T00:20:31;12.20;;;7.73;;
17604;SDS011;8921;50.964;6.800;2023-06-26T00:23:00;11.90;;;6.77;;
17604;SDS011;8921;50.964;6.800;2023-06-26T00:25:28;10.63;;;7.30;;
17604;SDS011;8921;50.964;6.800;2023-06-26T00:27:57;14.80;;;8.00;;
17604;SDS011;8921;50.964;6.800;2023-06-26T00:30:25;11.17;;;8.10;;
17604;SDS011;8921;50.964;6.800;2023-06-26T00:32:53;13.63;;;7.20;;
17604;SDS011;8921;50.964;6.800;2023-06-26T00:35:21;12.67;;;7.83;;
17604;SDS011;8921;50.964;6.800;2023-06-26T00:37:50;10.63;;;7.00;;
17604;SDS011;8921;50.964;6.800;2023-06-26T00:40:18;11.93;;;8.23;;
17604;SDS011;8921;50.964;6.800;2023-06-26T00:42:46;14.60;;;8.20;;
17604;SDS011;8921;50.964;6.800;2023-06-26T00:45:15;11.37;;;7.43;;
17604;SDS011;8921;50.964;6.800;2023-06-26T00:47:43;12.90;;;8.77;;
17604;SDS011;8921;50.964;6.800;2023-06-26T00:50:11;13.03;;;7.90;;
17604;SDS011;8921;50.964;6.800;2023-06-26T00:52:39;10.37;;;6.13;;
17604;SDS011;8921;50.964;6.800;2023-06-26T00:55:08;10.90;;;7.00;;
17604;SDS011;8921;50.964;6.800;2023-06-26T00:57:36;10.20;;;7.13;;
17604;SDS011;8921;50.964;6.800;2023-06-26T01:00:04;12.87;;;8.27;;
17604;SDS011;8921;50.964;6.800;2023-06-26T01:02:33;11.30;;;6.90;;
17604;SDS011;8921;50.964;6.800;2023-06-26T01:05:01;10.53;;;6.90;;
17604;SDS011;8921;50.964;6.800;2023-06-26T01:07:29;10.57;;;7.37;;
17604;SDS011;8921;50.964;6.800;2023-06-26T01:09:58;12.87;;;7.80;;
17604;SDS011;8921;50.964;6.800;2023-06-26T01:12:26;10.97;;;7.60;;
17604;SDS011;8921;50.964;6.800;2023-06-26T01:14:54;14.60;;;8.23;;
17604;SDS011;8921;50.964;6.800;2023-06-26T01:17:22;11.93;;;7.43;;
17604;SDS011;8921;50.964;6.800;2023-06-26T01:19:51;15.27;;;7.93;;
17604;SDS011;8921;50.964;6.800;2023-06-26T01:22:20;15.70;;;7.87;;
17604;SDS011;8921;50.964;6.800;2023-06-26T01:24:53;13.87;;;7.03;;
17604;SDS011;8921;50.964;6.800;2023-06-26T01:27:15;11.97;;;8.00;;
17604;SDS011;8921;50.964;6.800;2023-06-26T01:29:44;19.17;;;9.33;;
17604;SDS011;8921;50.964;6.800;2023-06-26T01:32:12;14.87;;;8.00;;
17604;SDS011;8921;50.964;6.800;2023-06-26T01:34:40;15.57;;;8.77;;
17604;SDS011;8921;50.964;6.800;2023-06-26T01:37:08;13.10;;;7.63;;
17604;SDS011;8921;50.964;6.800;2023-06-26T01:39:37;11.60;;;7.70;;
17604;SDS011;8921;50.964;6.800;2023-06-26T01:42:05;15.20;;;7.40;;
17604;SDS011;8921;50.964;6.800;2023-06-26T01:44:35;12.93;;;7.07;;
17604;SDS011;8921;50.964;6.800;2023-06-26T01:47:05;15.17;;;6.80;;
17604;SDS011;8921;50.964;6.800;2023-06-26T01:57:54;11.13;;;7.47;;
17604;SDS011;8921;50.964;6.800;2023-06-26T02:00:22;12.17;;;7.30;;
17604;SDS011;8921;50.964;6.800;2023-06-26T02:02:50;10.47;;;6.70;;
17604;SDS011;8921;50.964;6.800;2023-06-26T02:05:18;10.53;;;6.73;;
17604;SDS011;8921;50.964;6.800;2023-06-26T02:07:46;12.00;;;7.10;;
17604;SDS011;8921;50.964;6.800;2023-06-26T02:10:15;12.40;;;6.93;;
17604;SDS011;8921;50.964;6.800;2023-06-26T02:12:43;11.33;;;6.67;;
17604;SDS011;8921;50.964;6.800;2023-06-26T02:20:29;11.80;;;7.80;;
17604;SDS011;8921;50.964;6.800;2023-06-26T02:22:57;10.97;;;7.53;;
17604;SDS011;8921;50.964;6.800;2023-06-26T02:25:25;12.83;;;8.00;;
17604;SDS011;8921;50.964;6.800;2023-06-26T02:27:53;10.70;;;7.13;;
17604;SDS011;8921;50.964;6.800;2023-06-26T02:30:22;10.63;;;6.90;;
17604;SDS011;8921;50.964;6.800;2023-06-26T02:32:50;16.77;;;7.87;;
17604;SDS011;8921;50.964;6.800;2023-06-26T02:35:18;12.33;;;7.57;;
17604;SDS011;8921;50.964;6.800;2023-06-26T02:37:46;10.77;;;6.70;;
17604;SDS011;8921;50.964;6.800;2023-06-26T02:40:15;13.30;;;7.87;;
17604;SDS011;8921;50.964;6.800;2023-06-26T02:42:43;13.50;;;8.07;;
17604;SDS011;8921;50.964;6.800;2023-06-26T02:45:11;12.00;;;7.57;;
17604;SDS011;8921;50.964;6.800;2023-06-26T02:47:40;9.40;;;6.77;;
17604;SDS011;8921;50.964;6.800;2023-06-26T02:50:08;10.27;;;6.73;;
17604;SDS011;8921;50.964;6.800;2023-06-26T02:52:36;10.47;;;6.40;;
17604;SDS011;8921;50.964;6.800;2023-06-26T02:55:05;10.13;;;6.17;;
17604;SDS011;8921;50.964;6.800;2023-06-26T02:57:33;10.80;;;7.53;;
17604;SDS011;8921;50.964;6.800;2023-06-26T03:00:01;10.20;;;6.50;;
17604;SDS011;8921;50.964;6.800;2023-06-26T03:02:30;10.30;;;7.20;;
17604;SDS011;8921;50.964;6.800;2023-06-26T03:04:58;10.20;;;7.03;;
17604;SDS011;8921;50.964;6.800;2023-06-26T03:07:26;10.53;;;8.07;;
17604;SDS011;8921;50.964;6.800;2023-06-26T03:09:54;10.83;;;6.90;;
17604;SDS011;8921;50.964;6.800;2023-06-26T03:12:23;9.70;;;6.87;;
17604;SDS011;8921;50.964;6.800;2023-06-26T03:14:51;9.73;;;6.97;;
17604;SDS011;8921;50.964;6.800;2023-06-26T03:17:19;9.50;;;7.10;;
17604;SDS011;8921;50.964;6.800;2023-06-26T03:19:48;9.50;;;6.77;;
17604;SDS011;8921;50.964;6.800;2023-06-26T03:22:16;11.63;;;7.13;;
17604;SDS011;8921;50.964;6.800;2023-06-26T03:24:44;13.63;;;8.77;;
17604;SDS011;8921;50.964;6.800;2023-06-26T03:27:12;9.90;;;7.23;;
17604;SDS011;8921;50.964;6.800;2023-06-26T03:29:41;11.07;;;6.90;;
17604;SDS011;8921;50.964;6.800;2023-06-26T03:32:09;13.00;;;7.20;;
17604;SDS011;8921;50.964;6.800;2023-06-26T03:34:37;9.57;;;6.97;;
17604;SDS011;8921;50.964;6.800;2023-06-26T03:37:06;9.63;;;7.00;;
17604;SDS011;8921;50.964;6.800;2023-06-26T03:39:34;10.47;;;6.70;;
17604;SDS011;8921;50.964;6.800;2023-06-26T03:42:02;10.67;;;6.50;;
17604;SDS011;8921;50.964;6.800;2023-06-26T03:44:30;15.30;;;6.70;;
17604;SDS011;8921;50.964;6.800;2023-06-26T03:46:59;11.17;;;7.00;;
17604;SDS011;8921;50.964;6.800;2023-06-26T03:49:27;16.23;;;6.63;;
17604;SDS011;8921;50.964;6.800;2023-06-26T03:51:55;14.40;;;6.47;;
17604;SDS011;8921;50.964;6.800;2023-06-26T03:54:23;10.33;;;6.63;;
17604;SDS011;8921;50.964;6.800;2023-06-26T03:56:52;9.13;;;6.00;;
17604;SDS011;8921;50.964;6.800;2023-06-26T03:59:20;12.73;;;6.90;;
17604;SDS011;8921;50.964;6.800;2023-06-26T04:01:48;12.23;;;7.40;;
17604;SDS011;8921;50.964;6.800;2023-06-26T04:04:16;10.20;;;6.80;;
17604;SDS011;8921;50.964;6.800;2023-06-26T04:06:45;13.70;;;6.53;;
17604;SDS011;8921;50.964;6.800;2023-06-26T04:09:13;13.10;;;6.37;;
17604;SDS011;8921;50.964;6.800;2023-06-26T04:11:41;11.50;;;7.30;;
17604;SDS011;8921;50.964;6.800;2023-06-26T04:14:10;14.50;;;7.50;;
17604;SDS011;8921;50.964;6.800;2023-06-26T04:16:38;12.13;;;7.20;;
17604;SDS011;8921;50.964;6.800;2023-06-26T04:19:06;12.97;;;6.40;;
17604;SDS011;8921;50.964;6.800;2023-06-26T04:21:34;11.80;;;6.43;;
17604;SDS011;8921;50.964;6.800;2023-06-26T04:24:03;17.00;;;6.70;;
17604;SDS011;8921;50.964;6.800;2023-06-26T04:26:34;12.33;;;5.90;;
17604;SDS011;8921;50.964;6.800;2023-06-26T04:29:02;13.67;;;7.00;;
17604;SDS011;8921;50.964;6.800;2023-06-26T04:31:30;18.20;;;6.53;;
17604;SDS011;8921;50.964;6.800;2023-06-26T04:33:58;10.60;;;6.30;;
17604;SDS011;8921;50.964;6.800;2023-06-26T04:36:27;11.37;;;6.93;;
17604;SDS011;8921;50.964;6.800;2023-06-26T04:38:55;17.73;;;6.60;;
17604;SDS011;8921;50.964;6.800;2023-06-26T04:41:23;13.77;;;6.63;;
17604;SDS011;8921;50.964;6.800;2023-06-26T04:43:51;13.60;;;5.80;;
17604;SDS011;8921;50.964;6.800;2023-06-26T04:46:20;8.80;;;5.73;;
17604;SDS011;8921;50.964;6.800;2023-06-26T04:48:48;15.50;;;5.33;;
17604;SDS011;8921;50.964;6.800;2023-06-26T04:51:16;10.77;;;6.07;;
17604;SDS011;8921;50.964;6.800;2023-06-26T04:53:44;9.17;;;5.47;;
17604;SDS011;8921;50.964;6.800;2023-06-26T04:56:13;11.40;;;4.87;;
17604;SDS011;8921;50.964;6.800;2023-06-26T04:58:41;12.67;;;5.53;;
17604;SDS011;8921;50.964;6.800;2023-06-26T05:01:09;11.77;;;5.40;;
17604;SDS011;8921;50.964;6.800;2023-06-26T05:03:37;13.93;;;5.90;;
17604;SDS011;8921;50.964;6.800;2023-06-26T05:06:06;10.07;;;5.90;;
17604;SDS011;8921;50.964;6.800;2023-06-26T05:08:34;9.47;;;5.00;;
17604;SDS011;8921;50.964;6.800;2023-06-26T05:11:02;9.10;;;5.00;;
17604;SDS011;8921;50.964;6.800;2023-06-26T05:13:31;11.67;;;5.90;;
17604;SDS011;8921;50.964;6.800;2023-06-26T05:15:59;11.53;;;5.87;;
17604;SDS011;8921;50.964;6.800;2023-06-26T05:18:27;8.07;;;5.00;;
17604;SDS011;8921;50.964;6.800;2023-06-26T05:20:56;8.70;;;5.63;;
17604;SDS011;8921;50.964;6.800;2023-06-26T05:23:24;12.70;;;6.20;;
17604;SDS011;8921;50.964;6.800;2023-06-26T05:25:52;8.87;;;5.37;;
17604;SDS011;8921;50.964;6.800;2023-06-26T05:28:21;10.30;;;6.10;;
17604;SDS011;8921;50.964;6.800;2023-06-26T05:30:49;13.33;;;6.10;;
17604;SDS011;8921;50.964;6.800;2023-06-26T05:33:18;11.03;;;6.30;;
17604;SDS011;8921;50.964;6.800;2023-06-26T05:35:46;14.40;;;5.33;;
17604;SDS011;8921;50.964;6.800;2023-06-26T05:38:14;10.57;;;5.10;;
17604;SDS011;8921;50.964;6.800;2023-06-26T05:40:43;10.50;;;4.90;;
17604;SDS011;8921;50.964;6.800;2023-06-26T05:43:11;9.40;;;5.57;;
17604;SDS011;8921;50.964;6.800;2023-06-26T05:45:40;10.80;;;5.17;;
17604;SDS011;8921;50.964;6.800;2023-06-26T05:48:07;13.13;;;5.57;;
17604;SDS011;8921;50.964;6.800;2023-06-26T05:50:36;8.53;;;4.50;;
17604;SDS011;8921;50.964;6.800;2023-06-26T05:53:04;9.47;;;5.53;;
17604;SDS011;8921;50.964;6.800;2023-06-26T05:55:33;11.00;;;5.00;;
17604;SDS011;8921;50.964;6.800;2023-06-26T05:58:01;10.80;;;5.20;;
17604;SDS011;8921;50.964;6.800;2023-06-26T06:00:29;9.13;;;4.50;;
17604;SDS011;8921;50.964;6.800;2023-06-26T06:02:58;10.33;;;4.30;;
17604;SDS011;8921;50.964;6.800;2023-06-26T06:05:26;9.43;;;4.13;;
17604;SDS011;8921;50.964;6.800;2023-06-26T06:07:54;10.33;;;4.70;;
17604;SDS011;8921;50.964;6.800;2023-06-26T06:10:23;15.90;;;5.23;;
17604;SDS011;8921;50.964;6.800;2023-06-26T06:12:51;10.87;;;4.50;;
17604;SDS011;8921;50.964;6.800;2023-06-26T06:15:19;7.20;;;3.70;;
17604;SDS011;8921;50.964;6.800;2023-06-26T06:17:47;15.10;;;4.43;;
17604;SDS011;8921;50.964;6.800;2023-06-26T06:20:16;8.90;;;4.30;;
17604;SDS011;8921;50.964;6.800;2023-06-26T06:22:44;6.93;;;3.80;;
17604;SDS011;8921;50.964;6.800;2023-06-26T06:25:12;12.53;;;4.20;;
17604;SDS011;8921;50.964;6.800;2023-06-26T06:27:41;7.53;;;4.27;;
17604;SDS011;8921;50.964;6.800;2023-06-26T06:30:09;10.53;;;4.40;;
17604;SDS011;8921;50.964;6.800;2023-06-26T06:32:37;12.80;;;4.77;;
17604;SDS011;8921;50.964;6.800;2023-06-26T06:35:06;13.20;;;4.40;;
17604;SDS011;8921;50.964;6.800;2023-06-26T06:37:37;10.40;;;4.70;;
17604;SDS011;8921;50.964;6.800;2023-06-26T06:40:05;13.30;;;4.30;;
17604;SDS011;8921;50.964;6.800;2023-06-26T06:42:34;8.50;;;4.90;;
17604;SDS011;8921;50.964;6.800;2023-06-26T06:45:02;9.30;;;4.77;;
17604;SDS011;8921;50.964;6.800;2023-06-26T06:47:31;11.37;;;4.77;;
17604;SDS011;8921;50.964;6.800;2023-06-26T06:50:01;11.97;;;4.10;;
17604;SDS011;8921;50.964;6.800;2023-06-26T06:52:29;11.50;;;4.80;;
17604;SDS011;8921;50.964;6.800;2023-06-26T06:54:58;7.70;;;4.27;;
17604;SDS011;8921;50.964;6.800;2023-06-26T06:57:26;7.43;;;4.50;;
17604;SDS011;8921;50.964;6.800;2023-06-26T06:59:54;9.87;;;4.90;;
17604;SDS011;8921;50.964;6.800;2023-06-26T07:02:22;9.53;;;5.10;;
17604;SDS011;8921;50.964;6.800;2023-06-26T07:04:51;7.50;;;4.03;;
17604;SDS011;8921;50.964;6.800;2023-06-26T07:07:19;12.00;;;4.40;;
17604;SDS011;8921;50.964;6.800;2023-06-26T07:09:47;7.93;;;4.20;;
17604;SDS011;8921;50.964;6.800;2023-06-26T07:12:16;14.63;;;5.90;;
17604;SDS011;8921;50.964;6.800;2023-06-26T07:14:44;10.50;;;4.10;;
17604;SDS011;8921;50.964;6.800;2023-06-26T07:17:12;10.90;;;4.53;;
17604;SDS011;8921;50.964;6.800;2023-06-26T07:19:40;12.10;;;4.40;;
17604;SDS011;8921;50.964;6.800;2023-06-26T07:22:09;8.80;;;4.33;;
17604;SDS011;8921;50.964;6.800;2023-06-26T07:24:37;8.40;;;4.07;;
17604;SDS011;8921;50.964;6.800;2023-06-26T07:27:05;12.23;;;4.50;;
17604;SDS011;8921;50.964;6.800;2023-06-26T07:29:33;12.50;;;5.00;;
17604;SDS011;8921;50.964;6.800;2023-06-26T07:32:02;11.10;;;4.90;;
17604;SDS011;8921;50.964;6.800;2023-06-26T07:34:30;13.23;;;4.10;;
17604;SDS011;8921;50.964;6.800;2023-06-26T07:36:58;13.60;;;5.50;;
17604;SDS011;8921;50.964;6.800;2023-06-26T07:39:27;8.30;;;4.50;;
17604;SDS011;8921;50.964;6.800;2023-06-26T07:41:55;10.50;;;4.97;;
17604;SDS011;8921;50.964;6.800;2023-06-26T07:44:23;9.23;;;5.90;;
17604;SDS011;8921;50.964;6.800;2023-06-26T07:46:52;10.17;;;4.90;;
17604;SDS011;8921;50.964;6.800;2023-06-26T07:49:20;8.33;;;4.10;;
17604;SDS011;8921;50.964;6.800;2023-06-26T07:51:48;11.43;;;5.10;;
17604;SDS011;8921;50.964;6.800;2023-06-26T07:54:16;15.30;;;4.73;;
17604;SDS011;8921;50.964;6.800;2023-06-26T07:56:57;9.77;;;4.50;;
17604;SDS011;8921;50.964;6.800;2023-06-26T07:59:22;10.63;;;4.60;;
17604;SDS011;8921;50.964;6.800;2023-06-26T08:01:51;14.87;;;4.73;;
17604;SDS011;8921;50.964;6.800;2023-06-26T08:04:20;11.77;;;4.50;;
17604;SDS011;8921;50.964;6.800;2023-06-26T08:06:50;10.43;;;5.50;;
17604;SDS011;8921;50.964;6.800;2023-06-26T08:09:16;13.63;;;4.67;;
17604;SDS011;8921;50.964;6.800;2023-06-26T08:11:44;11.50;;;4.07;;
17604;SDS011;8921;50.964;6.800;2023-06-26T08:14:12;14.20;;;5.00;;
17604;SDS011;8921;50.964;6.800;2023-06-26T08:16:40;8.50;;;5.00;;
17604;SDS011;8921;50.964;6.800;2023-06-26T08:19:09;13.97;;;4.70;;
17604;SDS011;8921;50.964;6.800;2023-06-26T08:21:37;11.87;;;5.23;;
17604;SDS011;8921;50.964;6.800;2023-06-26T08:24:05;9.93;;;4.90;;
17604;SDS011;8921;50.964;6.800;2023-06-26T08:26:34;7.70;;;4.70;;
17604;SDS011;8921;50.964;6.800;2023-06-26T08:29:02;13.70;;;5.10;;
17604;SDS011;8921;50.964;6.800;2023-06-26T08:31:36;15.87;;;4.83;;
17604;SDS011;8921;50.964;6.800;2023-06-26T08:34:07;14.27;;;5.30;;
17604;SDS011;8921;50.964;6.800;2023-06-26T08:36:36;20.53;;;5.00;;
17604;SDS011;8921;50.964;6.800;2023-06-26T08:39:04;8.80;;;4.00;;
17604;SDS011;8921;50.964;6.800;2023-06-26T08:41:32;10.40;;;4.63;;
17604;SDS011;8921;50.964;6.800;2023-06-26T08:44:00;12.20;;;4.03;;
17604;SDS011;8921;50.964;6.800;2023-06-26T08:46:29;9.17;;;3.80;;
17604;SDS011;8921;50.964;6.800;2023-06-26T08:49:00;9.03;;;4.47;;
17604;SDS011;8921;50.964;6.800;2023-06-26T08:51:25;11.60;;;5.17;;
17604;SDS011;8921;50.964;6.800;2023-06-26T08:56:22;13.17;;;4.63;;
17604;SDS011;8921;50.964;6.800;2023-06-26T08:58:50;22.03;;;4.47;;
17604;SDS011;8921;50.964;6.800;2023-06-26T09:01:18;9.87;;;3.73;;
17604;SDS011;8921;50.964;6.800;2023-06-26T09:03:47;14.13;;;5.40;;
17604;SDS011;8921;50.964;6.800;2023-06-26T09:06:15;16.73;;;5.57;;
17604;SDS011;8921;50.964;6.800;2023-06-26T09:08:43;13.27;;;4.43;;
17604;SDS011;8921;50.964;6.800;2023-06-26T09:11:11;11.47;;;4.23;;
17604;SDS011;8921;50.964;6.800;2023-06-26T09:13:40;9.57;;;4.60;;
17604;SDS011;8921;50.964;6.800;2023-06-26T09:16:08;12.90;;;4.50;;
17604;SDS011;8921;50.964;6.800;2023-06-26T09:18:36;7.27;;;4.10;;
17604;SDS011;8921;50.964;6.800;2023-06-26T09:21:07;8.10;;;4.20;;
17604;SDS011;8921;50.964;6.800;2023-06-26T09:23:35;10.93;;;4.73;;
17604;SDS011;8921;50.964;6.800;2023-06-26T09:26:04;11.23;;;3.67;;
17604;SDS011;8921;50.964;6.800;2023-06-26T09:28:32;10.47;;;3.93;;
17604;SDS011;8921;50.964;6.800;2023-06-26T09:31:03;12.80;;;4.70;;
17604;SDS011;8921;50.964;6.800;2023-06-26T09:33:35;8.63;;;3.77;;
17604;SDS011;8921;50.964;6.800;2023-06-26T09:36:06;12.63;;;4.20;;
17604;SDS011;8921;50.964;6.800;2023-06-26T09:38:34;15.70;;;4.60;;
17604;SDS011;8921;50.964;6.800;2023-06-26T09:41:04;13.43;;;4.37;;
17604;SDS011;8921;50.964;6.800;2023-06-26T09:43:33;10.47;;;4.03;;
17604;SDS011;8921;50.964;6.800;2023-06-26T09:46:01;21.67;;;4.80;;
17604;SDS011;8921;50.964;6.800;2023-06-26T09:48:29;9.93;;;3.93;;
17604;SDS011;8921;50.964;6.800;2023-06-26T09:50:57;12.07;;;3.97;;
17604;SDS011;8921;50.964;6.800;2023-06-26T09:53:26;10.03;;;4.13;;
17604;SDS011;8921;50.964;6.800;2023-06-26T09:55:54;8.00;;;3.67;;
17604;SDS011;8921;50.964;6.800;2023-06-26T09:58:22;8.77;;;4.40;;
17604;SDS011;8921;50.964;6.800;2023-06-26T10:00:51;11.47;;;5.13;;
17604;SDS011;8921;50.964;6.800;2023-06-26T10:03:19;9.00;;;4.23;;
17604;SDS011;8921;50.964;6.800;2023-06-26T10:05:47;10.27;;;3.90;;
17604;SDS011;8921;50.964;6.800;2023-06-26T10:08:16;9.93;;;4.10;;
17604;SDS011;8921;50.964;6.800;2023-06-26T10:10:44;9.83;;;3.83;;
17604;SDS011;8921;50.964;6.800;2023-06-26T10:13:15;10.50;;;4.00;;
17604;SDS011;8921;50.964;6.800;2023-06-26T10:15:44;8.73;;;3.70;;
17604;SDS011;8921;50.964;6.800;2023-06-26T10:18:12;8.60;;;3.50;;
17604;SDS011;8921;50.964;6.800;2023-06-26T10:20:39;10.03;;;3.90;;
17604;SDS011;8921;50.964;6.800;2023-06-26T10:23:08;7.03;;;3.13;;
17604;SDS011;8921;50.964;6.800;2023-06-26T10:25:37;11.53;;;4.30;;
17604;SDS011;8921;50.964;6.800;2023-06-26T10:28:04;7.03;;;2.93;;
17604;SDS011;8921;50.964;6.800;2023-06-26T10:30:33;8.73;;;3.80;;
17604;SDS011;8921;50.964;6.800;2023-06-26T10:33:01;8.20;;;4.20;;
17604;SDS011;8921;50.964;6.800;2023-06-26T10:35:29;7.03;;;3.90;;
17604;SDS011;8921;50.964;6.800;2023-06-26T10:38:01;6.40;;;3.60;;
17604;SDS011;8921;50.964;6.800;2023-06-26T10:40:41;11.60;;;3.60;;
17604;SDS011;8921;50.964;6.800;2023-06-26T10:43:09;8.17;;;3.70;;
17604;SDS011;8921;50.964;6.800;2023-06-26T10:45:37;13.20;;;4.00;;
17604;SDS011;8921;50.964;6.800;2023-06-26T10:48:05;13.20;;;3.10;;
17604;SDS011;8921;50.964;6.800;2023-06-26T10:50:33;8.73;;;3.43;;
17604;SDS011;8921;50.964;6.800;2023-06-26T10:55:49;8.47;;;3.37;;
17604;SDS011;8921;50.964;6.800;2023-06-26T11:03:49;6.93;;;3.03;;
17604;SDS011;8921;50.964;6.800;2023-06-26T11:06:15;9.70;;;3.63;;
17604;SDS011;8921;50.964;6.800;2023-06-26T11:08:59;7.43;;;3.50;;
17604;SDS011;8921;50.964;6.800;2023-06-26T11:11:22;7.00;;;3.23;;
17604;SDS011;8921;50.964;6.800;2023-06-26T11:13:51;10.23;;;3.33;;
17604;SDS011;8921;50.964;6.800;2023-06-26T11:16:19;10.27;;;3.77;;
17604;SDS011;8921;50.964;6.800;2023-06-26T11:18:47;7.80;;;3.53;;
17604;SDS011;8921;50.964;6.800;2023-06-26T11:21:16;7.63;;;3.37;;
17604;SDS011;8921;50.964;6.800;2023-06-26T11:23:44;6.77;;;3.23;;
17604;SDS011;8921;50.964;6.800;2023-06-26T11:26:13;8.00;;;2.77;;
17604;SDS011;8921;50.964;6.800;2023-06-26T11:28:52;9.30;;;2.87;;
17604;SDS011;8921;50.964;6.800;2023-06-26T11:31:27;9.90;;;3.10;;
17604;SDS011;8921;50.964;6.800;2023-06-26T11:34:04;10.83;;;3.50;;
17604;SDS011;8921;50.964;6.800;2023-06-26T11:36:29;5.23;;;2.70;;
17604;SDS011;8921;50.964;6.800;2023-06-26T11:38:57;10.20;;;3.90;;
17604;SDS011;8921;50.964;6.800;2023-06-26T11:41:30;7.43;;;2.93;;
17604;SDS011;8921;50.964;6.800;2023-06-26T11:44:00;8.37;;;2.60;;
17604;SDS011;8921;50.964;6.800;2023-06-26T11:46:28;11.67;;;3.40;;
17604;SDS011;8921;50.964;6.800;2023-06-26T11:48:56;5.00;;;2.30;;
17604;SDS011;8921;50.964;6.800;2023-06-26T11:51:26;8.13;;;3.20;;
17604;SDS011;8921;50.964;6.800;2023-06-26T11:53:52;7.20;;;3.17;;
17604;SDS011;8921;50.964;6.800;2023-06-26T11:56:21;15.03;;;3.50;;
17604;SDS011;8921;50.964;6.800;2023-06-26T12:01:36;5.57;;;2.30;;
17604;SDS011;8921;50.964;6.800;2023-06-26T12:04:04;6.60;;;2.53;;
17604;SDS011;8921;50.964;6.800;2023-06-26T12:06:33;5.83;;;2.27;;
17604;SDS011;8921;50.964;6.800;2023-06-26T12:09:01;7.77;;;3.10;;
17604;SDS011;8921;50.964;6.800;2023-06-26T12:11:28;11.50;;;2.87;;
17604;SDS011;8921;50.964;6.800;2023-06-26T12:13:56;6.03;;;2.30;;
17604;SDS011;8921;50.964;6.800;2023-06-26T12:16:25;11.57;;;2.60;;
17604;SDS011;8921;50.964;6.800;2023-06-26T12:18:58;9.40;;;3.17;;
17604;SDS011;8921;50.964;6.800;2023-06-26T12:21:27;6.13;;;2.23;;
17604;SDS011;8921;50.964;6.800;2023-06-26T12:23:58;9.10;;;3.20;;
17604;SDS011;8921;50.964;6.800;2023-06-26T12:26:26;10.53;;;2.80;;
17604;SDS011;8921;50.964;6.800;2023-06-26T12:29:13;6.27;;;2.70;;
17604;SDS011;8921;50.964;6.800;2023-06-26T12:31:41;10.20;;;2.33;;
17604;SDS011;8921;50.964;6.800;2023-06-26T12:34:10;6.07;;;2.90;;
17604;SDS011;8921;50.964;6.800;2023-06-26T12:36:43;5.50;;;2.30;;
17604;SDS011;8921;50.964;6.800;2023-06-26T12:39:18;5.20;;;2.13;;
17604;SDS011;8921;50.964;6.800;2023-06-26T12:41:46;6.30;;;2.10;;
17604;SDS011;8921;50.964;6.800;2023-06-26T12:44:17;14.60;;;2.00;;
17604;SDS011;8921;50.964;6.800;2023-06-26T12:46:48;6.33;;;2.70;;
17604;SDS011;8921;50.964;6.800;2023-06-26T12:49:16;6.53;;;2.63;;
17604;SDS011;8921;50.964;6.800;2023-06-26T12:51:44;7.53;;;2.10;;
17604;SDS011;8921;50.964;6.800;2023-06-26T12:54:12;5.20;;;2.00;;
17604;SDS011;8921;50.964;6.800;2023-06-26T12:56:41;8.07;;;1.83;;
17604;SDS011;8921;50.964;6.800;2023-06-26T12:59:09;5.47;;;1.90;;
17604;SDS011;8921;50.964;6.800;2023-06-26T13:01:37;6.70;;;1.90;;
17604;SDS011;8921;50.964;6.800;2023-06-26T13:04:05;6.90;;;2.30;;
17604;SDS011;8921;50.964;6.800;2023-06-26T13:06:35;19.07;;;2.97;;
17604;SDS011;8921;50.964;6.800;2023-06-26T13:09:02;9.43;;;2.20;;
17604;SDS011;8921;50.964;6.800;2023-06-26T13:11:31;7.77;;;2.30;;
17604;SDS011;8921;50.964;6.800;2023-06-26T13:13:59;9.37;;;2.07;;
17604;SDS011;8921;50.964;6.800;2023-06-26T13:16:27;13.57;;;2.30;;
17604;SDS011;8921;50.964;6.800;2023-06-26T13:18:57;13.50;;;2.63;;
17604;SDS011;8921;50.964;6.800;2023-06-26T13:21:23;11.70;;;2.40;;
17604;SDS011;8921;50.964;6.800;2023-06-26T13:23:52;10.03;;;2.13;;
17604;SDS011;8921;50.964;6.800;2023-06-26T13:26:20;8.83;;;2.10;;
17604;SDS011;8921;50.964;6.800;2023-06-26T13:28:48;7.23;;;2.30;;
17604;SDS011;8921;50.964;6.800;2023-06-26T13:31:16;5.80;;;1.80;;
17604;SDS011;8921;50.964;6.800;2023-06-26T13:33:45;5.97;;;2.10;;
17604;SDS011;8921;50.964;6.800;2023-06-26T13:36:13;8.10;;;1.97;;
17604;SDS011;8921;50.964;6.800;2023-06-26T13:38:41;8.33;;;2.07;;
17604;SDS011;8921;50.964;6.800;2023-06-26T13:41:10;6.63;;;1.80;;
17604;SDS011;8921;50.964;6.800;2023-06-26T13:43:38;8.93;;;2.27;;
17604;SDS011;8921;50.964;6.800;2023-06-26T13:46:06;7.00;;;2.37;;
17604;SDS011;8921;50.964;6.800;2023-06-26T13:48:34;8.93;;;2.40;;
17604;SDS011;8921;50.964;6.800;2023-06-26T13:51:02;5.43;;;1.60;;
17604;SDS011;8921;50.964;6.800;2023-06-26T13:53:31;4.70;;;1.70;;
17604;SDS011;8921;50.964;6.800;2023-06-26T13:55:59;8.87;;;1.83;;
17604;SDS011;8921;50.964;6.800;2023-06-26T13:58:27;7.13;;;1.90;;
17604;SDS011;8921;50.964;6.800;2023-06-26T14:00:55;7.50;;;2.10;;
17604;SDS011;8921;50.964;6.800;2023-06-26T14:03:24;6.13;;;1.80;;
17604;SDS011;8921;50.964;6.800;2023-06-26T14:05:52;4.50;;;1.67;;
17604;SDS011;8921;50.964;6.800;2023-06-26T14:08:21;4.83;;;1.80;;
17604;SDS011;8921;50.964;6.800;2023-06-26T14:10:49;9.13;;;1.93;;
17604;SDS011;8921;50.964;6.800;2023-06-26T14:13:17;10.00;;;2.20;;
17604;SDS011;8921;50.964;6.800;2023-06-26T14:15:45;11.53;;;1.80;;
17604;SDS011;8921;50.964;6.800;2023-06-26T14:18:14;5.87;;;1.70;;
17604;SDS011;8921;50.964;6.800;2023-06-26T14:20:42;7.70;;;1.50;;
17604;SDS011;8921;50.964;6.800;2023-06-26T14:23:10;5.20;;;1.90;;
17604;SDS011;8921;50.964;6.800;2023-06-26T14:25:38;12.23;;;2.00;;
17604;SDS011;8921;50.964;6.800;2023-06-26T14:28:07;7.57;;;2.07;;
17604;SDS011;8921;50.964;6.800;2023-06-26T14:30:35;6.30;;;2.07;;
17604;SDS011;8921;50.964;6.800;2023-06-26T14:33:03;5.20;;;2.00;;
17604;SDS011;8921;50.964;6.800;2023-06-26T14:35:31;6.43;;;2.10;;
17604;SDS011;8921;50.964;6.800;2023-06-26T14:38:00;5.40;;;2.17;;
17604;SDS011;8921;50.964;6.800;2023-06-26T14:40:28;8.13;;;2.90;;
17604;SDS011;8921;50.964;6.800;2023-06-26T14:42:56;8.97;;;2.10;;
17604;SDS011;8921;50.964;6.800;2023-06-26T14:45:24;5.77;;;1.63;;
17604;SDS011;8921;50.964;6.800;2023-06-26T14:47:53;5.57;;;2.03;;
17604;SDS011;8921;50.964;6.800;2023-06-26T14:50:21;5.80;;;2.50;;
17604;SDS011;8921;50.964;6.800;2023-06-26T14:52:49;6.13;;;2.47;;
17604;SDS011;8921;50.964;6.800;2023-06-26T14:55:18;7.63;;;2.37;;
17604;SDS011;8921;50.964;6.800;2023-06-26T14:57:46;7.10;;;2.07;;
17604;SDS011;8921;50.964;6.800;2023-06-26T15:00:14;17.10;;;2.43;;
17604;SDS011;8921;50.964;6.800;2023-06-26T15:02:43;6.40;;;2.00;;
17604;SDS011;8921;50.964;6.800;2023-06-26T15:05:11;6.20;;;1.73;;
17604;SDS011;8921;50.964;6.800;2023-06-26T15:07:39;8.13;;;1.90;;
17604;SDS011;8921;50.964;6.800;2023-06-26T15:10:08;5.13;;;1.90;;
17604;SDS011;8921;50.964;6.800;2023-06-26T15:12:36;5.60;;;1.77;;
17604;SDS011;8921;50.964;6.800;2023-06-26T15:15:04;6.70;;;1.83;;
17604;SDS011;8921;50.964;6.800;2023-06-26T15:17:33;7.23;;;2.07;;
17604;SDS011;8921;50.964;6.800;2023-06-26T15:20:01;13.63;;;2.17;;
17604;SDS011;8921;50.964;6.800;2023-06-26T15:22:29;10.63;;;2.30;;
17604;SDS011;8921;50.964;6.800;2023-06-26T15:24:57;8.33;;;3.50;;
17604;SDS011;8921;50.964;6.800;2023-06-26T15:27:26;8.00;;;2.30;;